createdAt,value
2018-11-25T00:01:46.679Z,6.90
2018-11-25T00:06:51.190Z,6.75
2018-11-25T00:11:55.728Z,6.81
2018-11-25T00:17:00.313Z,6.94
2018-11-25T00:22:04.784Z,6.88
2018-11-25T00:27:09.340Z,6.94
2018-11-25T00:32:13.921Z,6.86
2018-11-25T00:37:18.601Z,6.83
2018-11-25T00:42:23.138Z,6.65
2018-11-25T00:47:46.643Z,6.71
2018-11-25T00:52:51.326Z,6.63
2018-11-25T00:57:55.875Z,6.67
2018-11-25T01:03:00.429Z,6.48
2018-11-25T01:08:04.998Z,6.38
2018-11-25T01:13:09.534Z,6.40
2018-11-25T01:18:14.134Z,6.33
2018-11-25T01:23:18.650Z,6.39
2018-11-25T01:28:23.191Z,6.59
2018-11-25T01:33:27.757Z,6.35
2018-11-25T01:38:50.966Z,6.30
2018-11-25T01:43:55.500Z,6.41
2018-11-25T01:49:00.119Z,6.22
2018-11-25T01:54:04.632Z,6.47
2018-11-25T01:59:09.177Z,6.21
2018-11-25T02:04:13.706Z,6.35
2018-11-25T02:14:33.858Z,6.14
2018-11-25T02:19:38.411Z,6.33
2018-11-25T02:24:42.980Z,6.28
2018-11-25T02:29:47.562Z,6.29
2018-11-25T02:34:52.162Z,6.32
2018-11-25T02:39:56.720Z,6.32
2018-11-25T02:45:01.286Z,6.32
2018-11-25T02:50:25.884Z,6.26
2018-11-25T02:55:30.480Z,5.86
2018-11-25T03:00:34.987Z,6.25
2018-11-25T03:05:39.556Z,6.25
2018-11-25T03:10:44.093Z,6.23
2018-11-25T03:15:48.697Z,6.27
2018-11-25T03:20:53.305Z,6.14
2018-11-25T03:25:57.871Z,5.75
2018-11-25T03:31:21.175Z,5.97
2018-11-25T03:36:25.738Z,6.10
2018-11-25T03:41:48.960Z,6.06
2018-11-25T03:46:53.524Z,6.07
2018-11-25T03:51:58.066Z,6.05
2018-11-25T03:57:02.617Z,6.04
2018-11-25T04:02:07.164Z,5.96
2018-11-25T04:07:30.374Z,5.95
2018-11-25T04:12:34.953Z,5.76
2018-11-25T04:17:39.483Z,6.05
2018-11-25T04:23:03.002Z,5.97
2018-11-25T04:28:07.623Z,5.93
2018-11-25T04:33:12.128Z,5.96
2018-11-25T04:38:16.706Z,5.92
2018-11-25T04:43:21.256Z,6.03
2018-11-25T04:48:25.849Z,5.61
2018-11-25T04:53:30.467Z,5.73
2018-11-25T04:58:34.999Z,5.91
2018-11-25T05:03:39.628Z,5.91
2018-11-25T05:09:02.908Z,5.67
2018-11-25T05:14:07.778Z,5.96
2018-11-25T05:19:12.340Z,5.94
2018-11-25T05:29:46.142Z,5.76
2018-11-25T05:34:50.651Z,5.80
2018-11-25T05:40:14.182Z,5.73
2018-11-25T05:45:38.450Z,6.05
2018-11-25T05:50:43.019Z,5.84
2018-11-25T05:55:47.453Z,5.93
2018-11-25T06:00:52.009Z,5.74
2018-11-25T06:05:56.512Z,5.66
2018-11-25T06:11:01.088Z,5.95
2018-11-25T06:16:05.884Z,5.98
2018-11-25T06:21:10.471Z,6.00
2018-11-25T06:26:15.007Z,6.16
2018-11-25T06:31:19.552Z,6.05
2018-11-25T06:36:24.107Z,6.05
2018-11-25T06:41:33.867Z,6.01
2018-11-25T06:46:51.821Z,5.98
2018-11-25T06:51:56.372Z,6.11
2018-11-25T06:57:00.921Z,6.06
2018-11-25T07:02:05.476Z,6.04
2018-11-25T07:07:29.039Z,6.13
2018-11-25T07:12:33.637Z,6.25
2018-11-25T07:17:38.370Z,6.18
2018-11-25T07:22:42.856Z,6.27
2018-11-25T07:27:47.450Z,6.19
2018-11-25T07:32:52.331Z,6.31
2018-11-25T07:37:57.071Z,6.20
2018-11-25T07:43:01.555Z,6.13
2018-11-25T07:48:06.347Z,6.50
2018-11-25T07:53:10.882Z,6.47
2018-11-25T07:58:15.813Z,6.43
2018-11-25T08:03:20.308Z,6.35
2018-11-25T08:08:34.374Z,6.40
2018-11-25T08:13:38.907Z,6.47
2018-11-25T08:18:43.430Z,6.63
2018-11-25T08:24:06.968Z,6.78
2018-11-25T08:29:11.522Z,6.84
2018-11-25T08:34:16.160Z,6.95
2018-11-25T08:39:20.807Z,7.03
2018-11-25T08:49:35.657Z,7.00
2018-11-25T08:54:40.241Z,7.19
2018-11-25T08:59:44.929Z,7.29
2018-11-25T09:04:49.445Z,7.35
2018-11-25T09:09:53.974Z,7.37
2018-11-25T09:14:58.581Z,7.55
2018-11-25T09:20:03.197Z,7.88
2018-11-25T09:25:09.916Z,7.83
2018-11-25T09:30:42.895Z,7.67
2018-11-25T09:35:47.391Z,7.68
2018-11-25T09:40:58.967Z,7.71
2018-11-25T09:45:56.572Z,7.76
2018-11-25T09:51:01.101Z,7.75
2018-11-25T09:56:06.410Z,7.75
2018-11-25T10:01:10.961Z,7.71
2018-11-25T10:06:15.490Z,7.89
2018-11-25T10:11:20.077Z,7.86
2018-11-25T10:16:24.635Z,7.95
2018-11-25T10:21:29.327Z,8.03
2018-11-25T10:26:34.028Z,8.04
2018-11-25T10:31:57.474Z,8.15
2018-11-25T10:37:02.027Z,8.16
2018-11-25T10:42:06.965Z,8.14
2018-11-25T10:47:11.593Z,8.27
2018-11-25T10:52:16.164Z,8.25
2018-11-25T10:57:20.740Z,8.24
2018-11-25T11:02:43.992Z,8.27
2018-11-25T11:07:48.738Z,8.35
2018-11-25T11:13:12.216Z,8.27
2018-11-25T11:18:16.856Z,8.37
2018-11-25T11:23:21.369Z,8.20
2018-11-25T11:28:25.974Z,8.25
2018-11-25T11:33:30.531Z,8.22
2018-11-25T11:38:35.064Z,8.14
2018-11-25T11:43:39.611Z,8.16
2018-11-25T11:49:02.784Z,8.14
2018-11-25T11:54:07.431Z,8.11
2018-11-25T11:59:11.944Z,8.23
2018-11-25T12:04:16.483Z,8.07
2018-11-25T12:09:20.982Z,8.01
2018-11-25T12:14:25.629Z,8.06
2018-11-25T12:19:30.277Z,8.06
2018-11-25T12:24:34.795Z,8.17
2018-11-25T12:29:39.367Z,8.09
2018-11-25T12:34:43.935Z,8.14
2018-11-25T12:39:48.479Z,8.16
2018-11-25T12:45:12.015Z,8.21
2018-11-25T12:50:36.114Z,8.40
2018-11-25T12:55:59.601Z,8.34
2018-11-25T13:01:04.137Z,8.34
2018-11-25T13:06:08.675Z,8.27
2018-11-25T13:11:32.204Z,8.30
2018-11-25T13:16:36.728Z,8.32
2018-11-25T13:21:41.334Z,8.33
2018-11-25T13:26:45.889Z,8.33
2018-11-25T13:31:50.410Z,8.40
2018-11-25T13:36:54.957Z,8.52
2018-11-25T13:41:59.517Z,8.47
2018-11-25T13:47:04.005Z,8.42
2018-11-25T13:52:09.022Z,8.53
2018-11-25T13:57:13.589Z,8.52
2018-11-25T14:02:18.120Z,8.41
2018-11-25T14:07:22.733Z,8.33
2018-11-25T14:12:27.466Z,8.34
2018-11-25T14:17:32.099Z,8.28
2018-11-25T14:22:55.503Z,8.23
2018-11-25T14:28:20.082Z,8.11
2018-11-25T14:33:24.609Z,8.27
2018-11-25T14:38:29.149Z,8.18
2018-11-25T14:43:33.682Z,8.11
2018-11-25T14:48:38.208Z,8.05
2018-11-25T14:53:42.775Z,8.04
2018-11-25T14:58:47.438Z,7.99
2018-11-25T15:03:53.198Z,7.95
2018-11-25T15:08:57.707Z,7.88
2018-11-25T15:14:04.948Z,7.86
2018-11-25T15:19:09.409Z,7.85
2018-11-25T15:24:14.075Z,7.74
2018-11-25T15:29:18.609Z,7.64
2018-11-25T15:34:23.136Z,7.59
2018-11-25T15:39:27.746Z,7.47
2018-11-25T15:50:01.593Z,7.41
2018-11-25T15:55:25.527Z,7.37
2018-11-25T16:00:30.041Z,7.25
2018-11-25T16:05:35.006Z,7.27
2018-11-25T16:10:39.575Z,7.16
2018-11-25T16:16:03.194Z,7.10
2018-11-25T16:21:07.990Z,7.10
2018-11-25T16:26:32.761Z,6.96
2018-11-25T16:31:37.345Z,6.96
2018-11-25T16:36:41.854Z,7.04
2018-11-25T16:41:46.404Z,6.90
2018-11-25T16:46:50.910Z,6.94
2018-11-25T16:51:55.435Z,6.79
2018-11-25T16:56:59.978Z,6.74
2018-11-25T17:02:42.331Z,6.80
2018-11-25T17:08:06.710Z,6.59
2018-11-25T17:13:13.986Z,6.56
2018-11-25T17:18:18.429Z,6.58
2018-11-25T17:23:23.004Z,6.49
2018-11-25T17:28:27.551Z,6.56
2018-11-25T17:33:32.080Z,6.29
2018-11-25T17:38:36.593Z,6.43
2018-11-25T17:43:41.137Z,6.36
2018-11-25T17:48:45.651Z,6.02
2018-11-25T17:53:53.635Z,6.29
2018-11-25T17:58:58.201Z,6.14
2018-11-25T18:04:21.907Z,6.25
2018-11-25T18:09:26.418Z,6.20
2018-11-25T18:14:31.030Z,6.22
2018-11-25T18:19:35.550Z,6.01
2018-11-25T18:24:40.307Z,6.15
2018-11-25T18:29:44.858Z,6.10
2018-11-25T18:34:49.419Z,6.18
2018-11-25T18:40:12.704Z,6.17
2018-11-25T18:45:40.566Z,6.16
2018-11-25T18:50:43.058Z,6.23
2018-11-25T18:55:45.797Z,6.26
2018-11-25T19:01:28.353Z,6.37
2018-11-25T19:06:33.047Z,6.32
2018-11-25T19:17:08.515Z,6.27
2018-11-25T19:22:13.267Z,6.14
2018-11-25T19:32:42.605Z,6.14
2018-11-25T19:37:48.392Z,6.14
2018-11-25T19:48:16.919Z,6.06
2018-11-25T19:58:45.449Z,6.27
2018-11-25T20:03:50.259Z,5.67
2018-11-25T20:14:24.661Z,6.22
2018-11-25T20:19:48.757Z,6.23
2018-11-25T20:24:53.336Z,6.05
2018-11-25T20:29:57.959Z,6.11
2018-11-25T20:35:09.999Z,6.07
2018-11-25T20:40:33.418Z,6.22
2018-11-25T20:45:56.668Z,6.32
2018-11-25T20:51:01.250Z,6.22
2018-11-25T20:56:27.562Z,6.44
2018-11-25T21:01:29.467Z,6.06
2018-11-25T21:06:53.027Z,6.24
2018-11-25T21:11:57.604Z,6.28
2018-11-25T21:17:21.168Z,6.35
2018-11-25T21:23:05.207Z,6.08
2018-11-25T21:28:28.735Z,6.08
2018-11-25T21:33:33.361Z,6.31
2018-11-25T21:38:38.531Z,6.18
2018-11-25T21:43:42.971Z,6.35
2018-11-25T21:48:47.599Z,6.14
2018-11-25T21:59:53.974Z,6.20
2018-11-25T22:04:58.481Z,6.30
2018-11-25T22:10:03.219Z,6.28
2018-11-25T22:15:10.209Z,6.22
2018-11-25T22:20:33.688Z,6.26
2018-11-25T22:25:38.310Z,6.13
2018-11-25T22:30:42.870Z,5.73
2018-11-25T22:35:47.443Z,6.30
2018-11-25T22:40:52.002Z,6.26
2018-11-25T22:45:56.557Z,6.27
2018-11-25T22:51:01.080Z,6.24
2018-11-25T22:56:05.720Z,6.16
2018-11-25T23:01:10.229Z,6.20
2018-11-25T23:06:52.747Z,6.14
2018-11-25T23:11:57.335Z,5.97
2018-11-25T23:17:01.848Z,5.66
2018-11-25T23:22:06.556Z,5.74
2018-11-25T23:27:11.137Z,5.92
2018-11-25T23:32:15.648Z,5.95
2018-11-25T23:37:20.213Z,5.84
2018-11-25T23:42:24.742Z,5.92
2018-11-25T23:47:29.328Z,5.81
2018-11-25T23:52:33.895Z,5.95
2018-11-25T23:57:38.429Z,6.02
